This is the latest recevied weather packets stored in our database for station/object OK1TBF-6. If no packets are shown the sender has not sent any weather packets the latest 10 day(s).
| Time | Temp. | Humidity | Pressure | Rain* | Wind** | Luminosity | Snow |
|---|---|---|---|---|---|---|---|
| 1777528883 | 3.33° C | 58% | 1021.3 hPa | 0 mm | - | - | - |
| 1777524381 | 1.67° C | 56% | 1020.9 hPa | 0 mm | - | - | - |
| 1777520182 | 1.11° C | 56% | 1020.4 hPa | 0 mm | - | - | - |
| 1777517782 | 1.11° C | 57% | 1020.3 hPa | 0 mm | - | - | - |
| 1777516581 | 1.11° C | 56% | 1020.2 hPa | 0 mm | - | - | - |
| 1777513280 | 2.22° C | 51% | 1020.6 hPa | 0 mm | - | - | - |
| 1777512680 | 1.67° C | 52% | 1020.4 hPa | 0 mm | - | - | - |
| 1777508178 | 2.22° C | 51% | 1020.1 hPa | 0 mm | - | - | - |
| 1777507580 | 2.22° C | 50% | 1020.2 hPa | 0 mm | - | - | - |
| 1777506379 | 2.78° C | 49% | 1020 hPa | 0 mm | - | - | - |
| 1777503379 | 2.78° C | 49% | 1020.2 hPa | 0 mm | - | - | - |
| 1777500678 | 3.33° C | 47% | 1020 hPa | 0 mm | - | - | - |
| 1777499778 | 2.78° C | 47% | 1019.7 hPa | 0 mm | - | - | - |
| 1777498879 | 3.33° C | 46% | 1019.8 hPa | 0 mm | - | - | - |
| 1777496177 | 3.33° C | 44% | 1019.6 hPa | 0 mm | - | - | - |
| 1777491678 | 4.44° C | 41% | 1019 hPa | 0 mm | - | - | - |
| 1777490176 | 4.44° C | 40% | 1018.8 hPa | 0 mm | - | - | - |
| 1777489877 | 5° C | 39% | 1018.8 hPa | 0 mm | - | - | - |
| 1777488378 | 5° C | 38% | 1018.5 hPa | 0 mm | - | - | - |
| 1777481176 | 7.22° C | 33% | 1017.2 hPa | 0 mm | - | - | - |
| 1777480875 | 7.22° C | 33% | 1017.2 hPa | 0 mm | - | - | - |
| 1777479974 | 7.78° C | 33% | 1017.1 hPa | 0 mm | - | - | - |
| 1777479676 | 7.78° C | 32% | 1016.9 hPa | 0 mm | - | - | - |
| 1777476675 | 7.78° C | 30% | 1016.8 hPa | 0 mm | - | - | - |
| 1777472174 | 8.89° C | 29% | 1016.5 hPa | 0 mm | - | - | - |
* Rain latest hour (hover to see other rain measurements)
** Current wind speed in m/s (hover to see current wind gust speed)